Lorraine L — WDB8580 — position and weather

sailwx.info

Track history (hours):
 
Tides and Currents Weather Stations Pressure Air Temp Water Temp Dewpoint Dewpoint Depression Visibility Wind Speed Wind Dir Waves Ship Positions

Lorraine L

Owner: Highland Towing LLC, Metairie, LA. More information available from US FCC via Universal Licensing System and Coast Guard Vessel Documentation Center.

Last reported at 2017-Feb-24 07:06 UTC. Time now 2017-Feb-24 19:29 UTC.
Position N 30°02' W 094°03'.

Length 19 m; draft 2.4 m.

Type: Towing. MMSI: 366961130.

Date/timePositionNaut miles runAvg speedWind from/ knotsBaromVisibWave heightAir tempDewpointWater temp
2017-Feb-24 07:06N 30°02' W 094°03'  
2017-Feb-17 13:28N 30°04' W 093°41'4 3.9
2017-Feb-17 12:33N 30°04' W 093°37'3 3.5
2017-Feb-17 11:33N 30°04' W 093°33'4 3.7
2017-Feb-17 10:33N 30°04' W 093°28'4 3.7
2017-Feb-17 09:33N 30°04' W 093°24'3 3.1
2017-Feb-17 08:34N 30°04' W 093°21'3 2.9
2017-Feb-17 07:32N 30°06' W 093°18'0 0.0
2017-Feb-17 06:32N 30°06' W 093°18'0 0.0
2017-Feb-17 05:32N 30°06' W 093°18'0 0.0
2017-Feb-17 04:32N 30°06' W 093°18'0 0.0
2017-Feb-17 03:32N 30°06' W 093°18'0 0.0
2017-Feb-17 02:32N 30°06' W 093°18'0 0.0
2017-Feb-17 01:32N 30°06' W 093°18'0 0.0
2017-Feb-17 00:32N 30°06' W 093°18'0 0.0
2017-Feb-16 23:32N 30°06' W 093°18'0 0.0
2017-Feb-16 22:32N 30°06' W 093°18'0 0.1
2017-Feb-16 21:34N 30°06' W 093°18'0 0.0
2017-Feb-16 20:33N 30°06' W 093°18'0 0.0
2017-Feb-16 19:33N 30°06' W 093°18'1 1.3
2017-Feb-16 18:34N 30°06' W 093°20'4 3.9
2017-Feb-16 17:34N 30°10' W 093°19'1 0.8
2017-Feb-16 16:32N 30°10' W 093°19'0 0.0
2017-Feb-16 14:31N 30°10' W 093°19'0 0.0
2017-Feb-16 13:31N 30°10' W 093°19'0 0.0
2017-Feb-16 12:28N 30°10' W 093°19'0 0.0
2017-Feb-16 11:31N 30°10' W 093°19'0 0.0
2017-Feb-16 10:31N 30°10' W 093°19'0 0.0
2017-Feb-16 09:31N 30°10' W 093°19'0 0.0
2017-Feb-16 08:31N 30°10' W 093°19'0 0.0
2017-Feb-16 07:31N 30°10' W 093°19'0 0.0
2017-Feb-16 06:31N 30°10' W 093°19'0 0.0
2017-Feb-16 05:31N 30°10' W 093°19'2 1.6
2017-Feb-16 04:33N 30°09' W 093°20'3 2.9
2017-Feb-16 03:34N 30°06' W 093°18'0 0.1
2017-Feb-16 02:31N 30°06' W 093°18'0 0.0
2017-Feb-16 01:31N 30°06' W 093°18'0 0.0
2017-Feb-16 00:31N 30°06' W 093°18'0 0.0
2017-Feb-15 23:31N 30°06' W 093°18'0 0.0
2017-Feb-15 22:31N 30°06' W 093°18'0 0.0
2017-Feb-15 21:31N 30°06' W 093°18'0 0.0
2017-Feb-15 20:31N 30°06' W 093°18'0 0.0
2017-Feb-15 19:31N 30°06' W 093°18'0 0.0
2017-Feb-15 18:28N 30°06' W 093°18'0 0.0
2017-Feb-15 17:31N 30°06' W 093°18'0 0.0
2017-Feb-15 16:32N 30°06' W 093°18'0 0.0
2017-Feb-15 15:32N 30°06' W 093°18'0 0.0
2017-Feb-15 14:32N 30°06' W 093°18'0 0.0
2017-Feb-15 13:32N 30°06' W 093°18'0 0.0
2017-Feb-15 12:32N 30°06' W 093°18'0 0.0
2017-Feb-15 11:32N 30°06' W 093°18'0 0.0
2017-Feb-15 10:32N 30°06' W 093°18'0 0.0
2017-Feb-15 09:32N 30°06' W 093°18'0 0.0
2017-Feb-15 08:32N 30°06' W 093°18'0 0.0
2017-Feb-15 07:32N 30°06' W 093°18'0 0.0
2017-Feb-15 06:32N 30°06' W 093°18'0 0.0
2017-Feb-15 05:32N 30°06' W 093°18'0 0.0
2017-Feb-15 04:32N 30°06' W 093°18'0 0.1
2017-Feb-15 03:31N 30°06' W 093°18'0 0.0
2017-Feb-15 02:31N 30°06' W 093°18'0 0.0
2017-Feb-15 01:31N 30°06' W 093°18'0 0.0
2017-Feb-15 00:31N 30°06' W 093°18'0 0.0
2017-Feb-14 23:31N 30°06' W 093°18'0 0.1
2017-Feb-14 22:32N 30°06' W 093°18'0 0.0
2017-Feb-14 21:31N 30°06' W 093°18'0 0.1
2017-Feb-14 20:33N 30°06' W 093°18'0 0.0
2017-Feb-14 19:33N 30°06' W 093°18'0 0.0
2017-Feb-14 18:33N 30°06' W 093°18'0 0.0
2017-Feb-14 17:33N 30°06' W 093°18'0 0.0
2017-Feb-14 16:33N 30°06' W 093°18'0 0.0
2017-Feb-14 15:33N 30°06' W 093°18'0 0.0
2017-Feb-14 14:33N 30°06' W 093°18'0 0.0
2017-Feb-14 13:33N 30°06' W 093°18'0 0.0
2017-Feb-14 12:33N 30°06' W 093°18'0 0.0
2017-Feb-14 11:33N 30°06' W 093°18'0 0.0
2017-Feb-14 10:33N 30°06' W 093°18'0 0.0
2017-Feb-14 09:33N 30°06' W 093°18'0 0.0
2017-Feb-14 08:33N 30°06' W 093°18'0 0.0
2017-Feb-14 07:33N 30°06' W 093°18'  
Track history (hours):
 
Tides and Currents Weather Stations Pressure Air Temp Water Temp Dewpoint Dewpoint Depression Visibility Wind Speed Wind Dir Waves Ship Positions

Lorraine L

Owner: Highland Towing LLC, Metairie, LA. More information available from US FCC via Universal Licensing System and Coast Guard Vessel Documentation Center.

Last reported at 2017-Feb-24 07:06 UTC. Time now 2017-Feb-24 19:29 UTC.
Position N 30°02' W 094°03'.

Length 19 m; draft 2.4 m.

Type: Towing. MMSI: 366961130.

Date/timePositionNaut miles runAvg speedWind from/ knotsBaromVisibWave heightAir tempDewpointWater temp
2017-Feb-24 07:06N 30°02' W 094°03'  
2017-Feb-17 13:28N 30°04' W 093°41'4 3.9
2017-Feb-17 12:33N 30°04' W 093°37'3 3.5
2017-Feb-17 11:33N 30°04' W 093°33'4 3.7
2017-Feb-17 10:33N 30°04' W 093°28'4 3.7
2017-Feb-17 09:33N 30°04' W 093°24'3 3.1
2017-Feb-17 08:34N 30°04' W 093°21'3 2.9
2017-Feb-17 07:32N 30°06' W 093°18'0 0.0
2017-Feb-17 06:32N 30°06' W 093°18'0 0.0
2017-Feb-17 05:32N 30°06' W 093°18'0 0.0
2017-Feb-17 04:32N 30°06' W 093°18'0 0.0
2017-Feb-17 03:32N 30°06' W 093°18'0 0.0
2017-Feb-17 02:32N 30°06' W 093°18'0 0.0
2017-Feb-17 01:32N 30°06' W 093°18'0 0.0
2017-Feb-17 00:32N 30°06' W 093°18'0 0.0
2017-Feb-16 23:32N 30°06' W 093°18'0 0.0
2017-Feb-16 22:32N 30°06' W 093°18'0 0.1
2017-Feb-16 21:34N 30°06' W 093°18'0 0.0
2017-Feb-16 20:33N 30°06' W 093°18'0 0.0
2017-Feb-16 19:33N 30°06' W 093°18'1 1.3
2017-Feb-16 18:34N 30°06' W 093°20'4 3.9
2017-Feb-16 17:34N 30°10' W 093°19'1 0.8
2017-Feb-16 16:32N 30°10' W 093°19'0 0.0
2017-Feb-16 14:31N 30°10' W 093°19'0 0.0
2017-Feb-16 13:31N 30°10' W 093°19'0 0.0
2017-Feb-16 12:28N 30°10' W 093°19'0 0.0
2017-Feb-16 11:31N 30°10' W 093°19'0 0.0
2017-Feb-16 10:31N 30°10' W 093°19'0 0.0
2017-Feb-16 09:31N 30°10' W 093°19'0 0.0
2017-Feb-16 08:31N 30°10' W 093°19'0 0.0
2017-Feb-16 07:31N 30°10' W 093°19'0 0.0
2017-Feb-16 06:31N 30°10' W 093°19'0 0.0
2017-Feb-16 05:31N 30°10' W 093°19'2 1.6
2017-Feb-16 04:33N 30°09' W 093°20'3 2.9
2017-Feb-16 03:34N 30°06' W 093°18'0 0.1
2017-Feb-16 02:31N 30°06' W 093°18'0 0.0
2017-Feb-16 01:31N 30°06' W 093°18'0 0.0
2017-Feb-16 00:31N 30°06' W 093°18'0 0.0
2017-Feb-15 23:31N 30°06' W 093°18'0 0.0
2017-Feb-15 22:31N 30°06' W 093°18'0 0.0
2017-Feb-15 21:31N 30°06' W 093°18'0 0.0
2017-Feb-15 20:31N 30°06' W 093°18'0 0.0
2017-Feb-15 19:31N 30°06' W 093°18'0 0.0
2017-Feb-15 18:28N 30°06' W 093°18'0 0.0
2017-Feb-15 17:31N 30°06' W 093°18'0 0.0
2017-Feb-15 16:32N 30°06' W 093°18'0 0.0
2017-Feb-15 15:32N 30°06' W 093°18'0 0.0
2017-Feb-15 14:32N 30°06' W 093°18'0 0.0
2017-Feb-15 13:32N 30°06' W 093°18'0 0.0
2017-Feb-15 12:32N 30°06' W 093°18'0 0.0
2017-Feb-15 11:32N 30°06' W 093°18'0 0.0
2017-Feb-15 10:32N 30°06' W 093°18'0 0.0
2017-Feb-15 09:32N 30°06' W 093°18'0 0.0
2017-Feb-15 08:32N 30°06' W 093°18'0 0.0
2017-Feb-15 07:32N 30°06' W 093°18'0 0.0
2017-Feb-15 06:32N 30°06' W 093°18'0 0.0
2017-Feb-15 05:32N 30°06' W 093°18'0 0.0
2017-Feb-15 04:32N 30°06' W 093°18'0 0.1
2017-Feb-15 03:31N 30°06' W 093°18'0 0.0
2017-Feb-15 02:31N 30°06' W 093°18'0 0.0
2017-Feb-15 01:31N 30°06' W 093°18'0 0.0
2017-Feb-15 00:31N 30°06' W 093°18'0 0.0
2017-Feb-14 23:31N 30°06' W 093°18'0 0.1
2017-Feb-14 22:32N 30°06' W 093°18'0 0.0
2017-Feb-14 21:31N 30°06' W 093°18'0 0.1
2017-Feb-14 20:33N 30°06' W 093°18'0 0.0
2017-Feb-14 19:33N 30°06' W 093°18'0 0.0
2017-Feb-14 18:33N 30°06' W 093°18'0 0.0
2017-Feb-14 17:33N 30°06' W 093°18'0 0.0
2017-Feb-14 16:33N 30°06' W 093°18'0 0.0
2017-Feb-14 15:33N 30°06' W 093°18'0 0.0
2017-Feb-14 14:33N 30°06' W 093°18'0 0.0
2017-Feb-14 13:33N 30°06' W 093°18'0 0.0
2017-Feb-14 12:33N 30°06' W 093°18'0 0.0
2017-Feb-14 11:33N 30°06' W 093°18'0 0.0
2017-Feb-14 10:33N 30°06' W 093°18'0 0.0
2017-Feb-14 09:33N 30°06' W 093°18'0 0.0
2017-Feb-14 08:33N 30°06' W 093°18'0 0.0
2017-Feb-14 07:33N 30°06' W 093°18'  

Dump ship's entire track history